sensor_id;sensor_type;location;lat;lon;timestamp;temperature;humidity
11304;DHT22;5707;49.588;12.148;2022-11-15T00:00:44;0.70;99.90
11304;DHT22;5707;49.588;12.148;2022-11-15T00:03:12;0.70;99.90
11304;DHT22;5707;49.588;12.148;2022-11-15T00:05:38;0.60;99.90
11304;DHT22;5707;49.588;12.148;2022-11-15T00:08:03;0.60;99.90
11304;DHT22;5707;49.588;12.148;2022-11-15T00:10:29;0.70;99.90
11304;DHT22;5707;49.588;12.148;2022-11-15T00:12:55;0.70;99.90
11304;DHT22;5707;49.588;12.148;2022-11-15T00:15:20;0.60;99.90
11304;DHT22;5707;49.588;12.148;2022-11-15T00:17:48;0.50;99.90
11304;DHT22;5707;49.588;12.148;2022-11-15T00:20:14;0.40;99.90
11304;DHT22;5707;49.588;12.148;2022-11-15T00:22:40;0.40;99.90
11304;DHT22;5707;49.588;12.148;2022-11-15T00:25:06;0.30;99.90
11304;DHT22;5707;49.588;12.148;2022-11-15T00:27:32;0.40;99.90
11304;DHT22;5707;49.588;12.148;2022-11-15T00:29:57;0.50;99.90
11304;DHT22;5707;49.588;12.148;2022-11-15T00:32:23;0.50;99.90
11304;DHT22;5707;49.588;12.148;2022-11-15T00:34:48;0.40;99.90
11304;DHT22;5707;49.588;12.148;2022-11-15T00:37:14;0.40;99.90
11304;DHT22;5707;49.588;12.148;2022-11-15T00:39:40;0.30;99.90
11304;DHT22;5707;49.588;12.148;2022-11-15T00:42:05;0.30;99.90
11304;DHT22;5707;49.588;12.148;2022-11-15T00:44:31;0.20;99.90
11304;DHT22;5707;49.588;12.148;2022-11-15T00:46:56;0.30;99.90
11304;DHT22;5707;49.588;12.148;2022-11-15T00:49:22;0.30;99.90
11304;DHT22;5707;49.588;12.148;2022-11-15T00:51:48;0.30;99.90
11304;DHT22;5707;49.588;12.148;2022-11-15T00:54:13;0.30;99.90
11304;DHT22;5707;49.588;12.148;2022-11-15T00:56:39;0.20;99.90
11304;DHT22;5707;49.588;12.148;2022-11-15T00:59:04;0.20;99.90
11304;DHT22;5707;49.588;12.148;2022-11-15T01:01:30;0.20;99.90
11304;DHT22;5707;49.588;12.148;2022-11-15T01:03:56;0.10;99.90
11304;DHT22;5707;49.588;12.148;2022-11-15T01:06:21;0.00;99.90
11304;DHT22;5707;49.588;12.148;2022-11-15T01:08:47;0.00;99.90
11304;DHT22;5707;49.588;12.148;2022-11-15T01:11:13;0.00;99.90
11304;DHT22;5707;49.588;12.148;2022-11-15T01:13:39;0.10;99.90
11304;DHT22;5707;49.588;12.148;2022-11-15T01:16:16;0.10;99.90
11304;DHT22;5707;49.588;12.148;2022-11-15T01:18:43;0.10;99.90
11304;DHT22;5707;49.588;12.148;2022-11-15T01:21:11;0.00;99.90
11304;DHT22;5707;49.588;12.148;2022-11-15T01:23:37;0.00;99.90
11304;DHT22;5707;49.588;12.148;2022-11-15T01:26:05;-0.10;99.90
11304;DHT22;5707;49.588;12.148;2022-11-15T01:28:33;-0.10;99.90
11304;DHT22;5707;49.588;12.148;2022-11-15T01:31:04;-0.20;99.90
11304;DHT22;5707;49.588;12.148;2022-11-15T01:33:30;-0.30;99.90
11304;DHT22;5707;49.588;12.148;2022-11-15T01:35:56;-0.30;99.90
11304;DHT22;5707;49.588;12.148;2022-11-15T01:38:22;-0.30;99.90
11304;DHT22;5707;49.588;12.148;2022-11-15T01:40:48;-0.30;99.90
11304;DHT22;5707;49.588;12.148;2022-11-15T01:43:30;-0.30;99.90
11304;DHT22;5707;49.588;12.148;2022-11-15T01:48:32;-0.40;99.90
11304;DHT22;5707;49.588;12.148;2022-11-15T01:50:59;-0.30;99.90
11304;DHT22;5707;49.588;12.148;2022-11-15T01:53:26;-0.40;99.90
11304;DHT22;5707;49.588;12.148;2022-11-15T01:55:53;-0.40;99.90
11304;DHT22;5707;49.588;12.148;2022-11-15T01:58:19;-0.30;99.90
11304;DHT22;5707;49.588;12.148;2022-11-15T02:00:44;-0.30;99.90
11304;DHT22;5707;49.588;12.148;2022-11-15T02:03:10;-0.20;99.90
11304;DHT22;5707;49.588;12.148;2022-11-15T02:05:37;-0.30;99.90
11304;DHT22;5707;49.588;12.148;2022-11-15T02:08:03;-0.40;99.90
11304;DHT22;5707;49.588;12.148;2022-11-15T02:10:29;-0.50;99.90
11304;DHT22;5707;49.588;12.148;2022-11-15T02:12:56;-0.50;99.90
11304;DHT22;5707;49.588;12.148;2022-11-15T02:15:26;-0.60;99.90
11304;DHT22;5707;49.588;12.148;2022-11-15T02:18:07;-0.60;99.90
11304;DHT22;5707;49.588;12.148;2022-11-15T02:20:58;-0.60;99.90
11304;DHT22;5707;49.588;12.148;2022-11-15T02:23:57;-0.60;99.90
11304;DHT22;5707;49.588;12.148;2022-11-15T02:29:33;-0.60;99.90
11304;DHT22;5707;49.588;12.148;2022-11-15T02:35:02;-0.70;99.90
11304;DHT22;5707;49.588;12.148;2022-11-15T02:37:43;-0.70;99.90
11304;DHT22;5707;49.588;12.148;2022-11-15T02:43:02;-0.70;99.90
11304;DHT22;5707;49.588;12.148;2022-11-15T02:45:53;-0.60;99.90
11304;DHT22;5707;49.588;12.148;2022-11-15T02:48:23;-0.70;99.90
11304;DHT22;5707;49.588;12.148;2022-11-15T02:50:51;-0.70;99.90
11304;DHT22;5707;49.588;12.148;2022-11-15T02:53:17;-0.70;99.90
11304;DHT22;5707;49.588;12.148;2022-11-15T02:55:50;-0.80;99.90
11304;DHT22;5707;49.588;12.148;2022-11-15T03:01:33;-0.90;99.90
11304;DHT22;5707;49.588;12.148;2022-11-15T03:07:37;-1.00;99.90
11304;DHT22;5707;49.588;12.148;2022-11-15T03:12:33;-1.00;99.90
11304;DHT22;5707;49.588;12.148;2022-11-15T03:15:20;-1.10;99.90
11304;DHT22;5707;49.588;12.148;2022-11-15T03:18:53;-1.10;99.90
11304;DHT22;5707;49.588;12.148;2022-11-15T03:21:04;-1.10;99.90
11304;DHT22;5707;49.588;12.148;2022-11-15T03:23:31;-1.00;99.90
11304;DHT22;5707;49.588;12.148;2022-11-15T03:25:58;-1.00;99.90
11304;DHT22;5707;49.588;12.148;2022-11-15T03:28:36;-1.10;99.90
11304;DHT22;5707;49.588;12.148;2022-11-15T03:31:03;-1.10;99.90
11304;DHT22;5707;49.588;12.148;2022-11-15T03:33:53;-1.10;99.90
11304;DHT22;5707;49.588;12.148;2022-11-15T03:36:22;-1.10;99.90
11304;DHT22;5707;49.588;12.148;2022-11-15T03:38:48;-1.10;99.90
11304;DHT22;5707;49.588;12.148;2022-11-15T03:41:24;-1.10;99.90
11304;DHT22;5707;49.588;12.148;2022-11-15T03:44:09;-1.20;99.90
11304;DHT22;5707;49.588;12.148;2022-11-15T03:49:44;-1.30;99.90
11304;DHT22;5707;49.588;12.148;2022-11-15T03:52:10;-1.30;99.90
11304;DHT22;5707;49.588;12.148;2022-11-15T03:54:37;-1.30;99.90
11304;DHT22;5707;49.588;12.148;2022-11-15T03:57:02;-1.30;99.90
11304;DHT22;5707;49.588;12.148;2022-11-15T03:59:28;-1.20;99.90
11304;DHT22;5707;49.588;12.148;2022-11-15T04:01:54;-1.10;99.90
11304;DHT22;5707;49.588;12.148;2022-11-15T04:04:19;-0.90;99.90
11304;DHT22;5707;49.588;12.148;2022-11-15T04:06:45;-0.60;99.90
11304;DHT22;5707;49.588;12.148;2022-11-15T04:09:10;-0.30;99.90
11304;DHT22;5707;49.588;12.148;2022-11-15T04:11:36;-0.20;99.90
11304;DHT22;5707;49.588;12.148;2022-11-15T04:14:02;-0.20;99.90
11304;DHT22;5707;49.588;12.148;2022-11-15T04:16:27;-0.30;99.90
11304;DHT22;5707;49.588;12.148;2022-11-15T04:18:53;-0.40;99.90
11304;DHT22;5707;49.588;12.148;2022-11-15T04:21:39;-0.50;99.90
11304;DHT22;5707;49.588;12.148;2022-11-15T04:24:23;-0.70;99.90
11304;DHT22;5707;49.588;12.148;2022-11-15T04:26:49;-0.80;99.90
11304;DHT22;5707;49.588;12.148;2022-11-15T04:29:15;-0.90;99.90
11304;DHT22;5707;49.588;12.148;2022-11-15T04:31:59;-1.00;99.90
11304;DHT22;5707;49.588;12.148;2022-11-15T04:34:24;-1.10;99.90
11304;DHT22;5707;49.588;12.148;2022-11-15T04:36:50;-1.10;99.90
11304;DHT22;5707;49.588;12.148;2022-11-15T04:39:34;-1.20;99.90
11304;DHT22;5707;49.588;12.148;2022-11-15T04:42:00;-1.20;99.90
11304;DHT22;5707;49.588;12.148;2022-11-15T04:44:26;-1.10;99.90
11304;DHT22;5707;49.588;12.148;2022-11-15T04:46:51;-1.00;99.90
11304;DHT22;5707;49.588;12.148;2022-11-15T04:49:17;-1.10;99.90
11304;DHT22;5707;49.588;12.148;2022-11-15T04:51:43;-1.20;99.90
11304;DHT22;5707;49.588;12.148;2022-11-15T04:54:08;-1.20;99.90
11304;DHT22;5707;49.588;12.148;2022-11-15T04:56:34;-1.30;99.90
11304;DHT22;5707;49.588;12.148;2022-11-15T04:58:59;-1.20;99.90
11304;DHT22;5707;49.588;12.148;2022-11-15T05:01:25;-1.20;99.90
11304;DHT22;5707;49.588;12.148;2022-11-15T05:03:51;-1.20;99.90
11304;DHT22;5707;49.588;12.148;2022-11-15T05:06:35;-1.20;99.90
11304;DHT22;5707;49.588;12.148;2022-11-15T05:09:00;-1.30;99.90
11304;DHT22;5707;49.588;12.148;2022-11-15T05:11:26;-1.30;99.90
11304;DHT22;5707;49.588;12.148;2022-11-15T05:13:53;-1.30;99.90
11304;DHT22;5707;49.588;12.148;2022-11-15T05:16:19;-1.30;99.90
11304;DHT22;5707;49.588;12.148;2022-11-15T05:18:45;-1.30;99.90
11304;DHT22;5707;49.588;12.148;2022-11-15T05:21:13;-1.40;99.90
11304;DHT22;5707;49.588;12.148;2022-11-15T05:23:39;-1.40;99.90
11304;DHT22;5707;49.588;12.148;2022-11-15T05:26:06;-1.50;99.90
11304;DHT22;5707;49.588;12.148;2022-11-15T05:28:33;-1.50;99.90
11304;DHT22;5707;49.588;12.148;2022-11-15T05:31:25;-1.50;99.90
11304;DHT22;5707;49.588;12.148;2022-11-15T05:33:52;-1.60;99.90
11304;DHT22;5707;49.588;12.148;2022-11-15T05:36:29;-1.60;99.90
11304;DHT22;5707;49.588;12.148;2022-11-15T05:38:56;-1.60;99.90
11304;DHT22;5707;49.588;12.148;2022-11-15T05:41:31;-1.60;99.90
11304;DHT22;5707;49.588;12.148;2022-11-15T05:43:58;-1.60;99.90
11304;DHT22;5707;49.588;12.148;2022-11-15T05:46:25;-1.60;99.90
11304;DHT22;5707;49.588;12.148;2022-11-15T05:48:52;-1.60;99.90
11304;DHT22;5707;49.588;12.148;2022-11-15T05:51:21;-1.60;99.90
11304;DHT22;5707;49.588;12.148;2022-11-15T05:53:47;-1.60;99.90
11304;DHT22;5707;49.588;12.148;2022-11-15T05:56:14;-1.60;99.90
11304;DHT22;5707;49.588;12.148;2022-11-15T05:58:40;-1.70;99.90
11304;DHT22;5707;49.588;12.148;2022-11-15T06:01:05;-1.70;99.90
11304;DHT22;5707;49.588;12.148;2022-11-15T06:03:31;-1.60;99.90
11304;DHT22;5707;49.588;12.148;2022-11-15T06:05:57;-1.60;99.90
11304;DHT22;5707;49.588;12.148;2022-11-15T06:08:22;-1.70;99.90
11304;DHT22;5707;49.588;12.148;2022-11-15T06:10:48;-1.70;99.90
11304;DHT22;5707;49.588;12.148;2022-11-15T06:13:14;-1.70;99.90
11304;DHT22;5707;49.588;12.148;2022-11-15T06:15:39;-1.70;99.90
11304;DHT22;5707;49.588;12.148;2022-11-15T06:18:05;-1.70;99.90
11304;DHT22;5707;49.588;12.148;2022-11-15T06:20:31;-1.70;99.90
11304;DHT22;5707;49.588;12.148;2022-11-15T06:22:58;-1.70;99.90
11304;DHT22;5707;49.588;12.148;2022-11-15T06:25:25;-1.70;99.90
11304;DHT22;5707;49.588;12.148;2022-11-15T06:27:55;-1.70;99.90
11304;DHT22;5707;49.588;12.148;2022-11-15T06:30:21;-1.70;99.90
11304;DHT22;5707;49.588;12.148;2022-11-15T06:32:47;-1.70;99.90
11304;DHT22;5707;49.588;12.148;2022-11-15T06:35:13;-1.70;99.90
11304;DHT22;5707;49.588;12.148;2022-11-15T06:37:40;-1.70;99.90
11304;DHT22;5707;49.588;12.148;2022-11-15T06:40:07;-1.70;99.90
11304;DHT22;5707;49.588;12.148;2022-11-15T06:42:33;-1.70;99.90
11304;DHT22;5707;49.588;12.148;2022-11-15T06:44:59;-1.60;99.90
11304;DHT22;5707;49.588;12.148;2022-11-15T06:47:24;-1.40;99.90
11304;DHT22;5707;49.588;12.148;2022-11-15T06:49:50;-1.20;99.90
11304;DHT22;5707;49.588;12.148;2022-11-15T06:52:15;-1.20;99.90
11304;DHT22;5707;49.588;12.148;2022-11-15T06:54:43;-1.20;99.90
11304;DHT22;5707;49.588;12.148;2022-11-15T06:57:09;-1.20;99.90
11304;DHT22;5707;49.588;12.148;2022-11-15T06:59:36;-1.20;99.90
11304;DHT22;5707;49.588;12.148;2022-11-15T07:02:02;-1.20;99.90
11304;DHT22;5707;49.588;12.148;2022-11-15T07:04:27;-1.10;99.90
11304;DHT22;5707;49.588;12.148;2022-11-15T07:06:53;-1.00;99.90
11304;DHT22;5707;49.588;12.148;2022-11-15T07:09:18;-1.00;99.90
11304;DHT22;5707;49.588;12.148;2022-11-15T07:11:44;-1.00;99.90
11304;DHT22;5707;49.588;12.148;2022-11-15T07:14:10;-1.00;99.90
11304;DHT22;5707;49.588;12.148;2022-11-15T07:16:36;-1.00;99.90
11304;DHT22;5707;49.588;12.148;2022-11-15T07:19:02;-0.90;99.90
11304;DHT22;5707;49.588;12.148;2022-11-15T07:21:28;-0.70;99.90
11304;DHT22;5707;49.588;12.148;2022-11-15T07:23:54;-0.60;99.90
11304;DHT22;5707;49.588;12.148;2022-11-15T07:26:20;-0.40;99.90
11304;DHT22;5707;49.588;12.148;2022-11-15T07:28:45;-0.40;99.90
11304;DHT22;5707;49.588;12.148;2022-11-15T07:31:11;-0.30;99.90
11304;DHT22;5707;49.588;12.148;2022-11-15T07:33:37;-0.20;99.90
11304;DHT22;5707;49.588;12.148;2022-11-15T07:36:04;0.00;99.90
11304;DHT22;5707;49.588;12.148;2022-11-15T07:38:30;0.10;99.90
11304;DHT22;5707;49.588;12.148;2022-11-15T07:41:01;0.20;99.90
11304;DHT22;5707;49.588;12.148;2022-11-15T07:43:27;0.30;99.90
11304;DHT22;5707;49.588;12.148;2022-11-15T07:45:53;0.40;99.90
11304;DHT22;5707;49.588;12.148;2022-11-15T07:48:19;0.40;99.90
11304;DHT22;5707;49.588;12.148;2022-11-15T07:50:45;0.40;99.90
11304;DHT22;5707;49.588;12.148;2022-11-15T07:53:10;0.40;99.90
11304;DHT22;5707;49.588;12.148;2022-11-15T07:55:36;0.40;99.90
11304;DHT22;5707;49.588;12.148;2022-11-15T07:58:04;0.50;99.90
11304;DHT22;5707;49.588;12.148;2022-11-15T08:00:31;0.50;99.90
11304;DHT22;5707;49.588;12.148;2022-11-15T08:03:13;0.50;99.90
11304;DHT22;5707;49.588;12.148;2022-11-15T08:05:40;0.50;99.90
11304;DHT22;5707;49.588;12.148;2022-11-15T08:08:08;0.50;99.90
11304;DHT22;5707;49.588;12.148;2022-11-15T08:10:35;0.50;99.90
11304;DHT22;5707;49.588;12.148;2022-11-15T08:13:05;0.60;99.90
11304;DHT22;5707;49.588;12.148;2022-11-15T08:15:32;0.70;99.90
11304;DHT22;5707;49.588;12.148;2022-11-15T08:17:59;0.70;99.90
11304;DHT22;5707;49.588;12.148;2022-11-15T08:20:26;0.90;99.90
11304;DHT22;5707;49.588;12.148;2022-11-15T08:22:58;1.10;99.90
11304;DHT22;5707;49.588;12.148;2022-11-15T08:25:25;1.30;99.90
11304;DHT22;5707;49.588;12.148;2022-11-15T08:27:53;1.50;99.90
11304;DHT22;5707;49.588;12.148;2022-11-15T08:30:19;1.70;99.90
11304;DHT22;5707;49.588;12.148;2022-11-15T08:32:44;1.90;99.90
11304;DHT22;5707;49.588;12.148;2022-11-15T08:35:10;2.00;99.90
11304;DHT22;5707;49.588;12.148;2022-11-15T08:37:36;2.20;99.90
11304;DHT22;5707;49.588;12.148;2022-11-15T08:40:03;2.30;99.90
11304;DHT22;5707;49.588;12.148;2022-11-15T08:42:28;2.30;99.90
11304;DHT22;5707;49.588;12.148;2022-11-15T08:44:54;2.40;99.90
11304;DHT22;5707;49.588;12.148;2022-11-15T08:47:19;2.50;99.90
11304;DHT22;5707;49.588;12.148;2022-11-15T08:49:45;2.60;99.90
11304;DHT22;5707;49.588;12.148;2022-11-15T08:52:11;2.70;99.90
11304;DHT22;5707;49.588;12.148;2022-11-15T08:54:36;2.70;99.90
11304;DHT22;5707;49.588;12.148;2022-11-15T08:57:02;2.80;99.90
11304;DHT22;5707;49.588;12.148;2022-11-15T08:59:28;2.90;99.90
11304;DHT22;5707;49.588;12.148;2022-11-15T09:01:54;3.00;99.90
11304;DHT22;5707;49.588;12.148;2022-11-15T09:04:19;3.10;99.90
11304;DHT22;5707;49.588;12.148;2022-11-15T09:06:45;3.20;99.90
11304;DHT22;5707;49.588;12.148;2022-11-15T09:09:11;3.30;99.90
11304;DHT22;5707;49.588;12.148;2022-11-15T09:11:36;3.40;99.90
11304;DHT22;5707;49.588;12.148;2022-11-15T09:14:02;3.50;99.90
11304;DHT22;5707;49.588;12.148;2022-11-15T09:16:30;3.60;99.90
11304;DHT22;5707;49.588;12.148;2022-11-15T09:18:56;3.60;99.90
11304;DHT22;5707;49.588;12.148;2022-11-15T09:21:22;3.80;99.90
11304;DHT22;5707;49.588;12.148;2022-11-15T09:23:50;3.90;99.90
11304;DHT22;5707;49.588;12.148;2022-11-15T09:26:17;4.00;99.90
11304;DHT22;5707;49.588;12.148;2022-11-15T09:28:43;4.00;99.90
11304;DHT22;5707;49.588;12.148;2022-11-15T09:31:09;4.10;99.90
11304;DHT22;5707;49.588;12.148;2022-11-15T09:33:35;4.20;99.90
11304;DHT22;5707;49.588;12.148;2022-11-15T09:36:11;4.30;99.90
11304;DHT22;5707;49.588;12.148;2022-11-15T09:38:37;4.40;99.90
11304;DHT22;5707;49.588;12.148;2022-11-15T09:56:27;5.10;99.90
11304;DHT22;5707;49.588;12.148;2022-11-15T10:04:36;5.50;99.90
11304;DHT22;5707;49.588;12.148;2022-11-15T10:10:22;5.70;99.90
11304;DHT22;5707;49.588;12.148;2022-11-15T10:12:44;5.80;99.90
11304;DHT22;5707;49.588;12.148;2022-11-15T10:15:14;5.90;99.90
11304;DHT22;5707;49.588;12.148;2022-11-15T10:23:17;6.20;99.90
11304;DHT22;5707;49.588;12.148;2022-11-15T10:25:43;6.20;99.90
11304;DHT22;5707;49.588;12.148;2022-11-15T10:28:28;6.40;99.90
11304;DHT22;5707;49.588;12.148;2022-11-15T10:30:56;6.50;99.90
11304;DHT22;5707;49.588;12.148;2022-11-15T10:36:20;6.60;99.90
11304;DHT22;5707;49.588;12.148;2022-11-15T10:41:20;6.80;99.90
11304;DHT22;5707;49.588;12.148;2022-11-15T10:46:41;7.00;99.90
11304;DHT22;5707;49.588;12.148;2022-11-15T10:49:18;7.10;99.90
11304;DHT22;5707;49.588;12.148;2022-11-15T10:54:13;7.30;99.90
11304;DHT22;5707;49.588;12.148;2022-11-15T10:56:42;7.40;99.90
11304;DHT22;5707;49.588;12.148;2022-11-15T10:59:17;7.50;99.90
11304;DHT22;5707;49.588;12.148;2022-11-15T11:01:47;7.60;99.90
11304;DHT22;5707;49.588;12.148;2022-11-15T11:04:13;7.60;99.90
11304;DHT22;5707;49.588;12.148;2022-11-15T11:06:51;7.70;99.90
11304;DHT22;5707;49.588;12.148;2022-11-15T11:09:38;7.80;99.90
11304;DHT22;5707;49.588;12.148;2022-11-15T11:12:08;7.90;99.90
11304;DHT22;5707;49.588;12.148;2022-11-15T11:14:36;7.90;99.90
11304;DHT22;5707;49.588;12.148;2022-11-15T11:26:09;8.10;99.90
11304;DHT22;5707;49.588;12.148;2022-11-15T11:28:53;8.30;99.90
11304;DHT22;5707;49.588;12.148;2022-11-15T11:31:43;8.40;99.90
11304;DHT22;5707;49.588;12.148;2022-11-15T11:50:52;8.70;99.90
11304;DHT22;5707;49.588;12.148;2022-11-15T11:53:47;8.80;99.90
11304;DHT22;5707;49.588;12.148;2022-11-15T11:56:27;9.00;99.90
11304;DHT22;5707;49.588;12.148;2022-11-15T11:58:57;9.10;99.90
11304;DHT22;5707;49.588;12.148;2022-11-15T12:01:30;9.10;99.90
11304;DHT22;5707;49.588;12.148;2022-11-15T12:04:13;9.30;99.90
11304;DHT22;5707;49.588;12.148;2022-11-15T12:09:36;9.50;99.90
11304;DHT22;5707;49.588;12.148;2022-11-15T12:17:28;9.70;99.90
11304;DHT22;5707;49.588;12.148;2022-11-15T12:20:05;9.80;99.90
11304;DHT22;5707;49.588;12.148;2022-11-15T12:25:25;10.10;99.90
11304;DHT22;5707;49.588;12.148;2022-11-15T12:30:52;10.30;99.90
11304;DHT22;5707;49.588;12.148;2022-11-15T12:33:41;10.40;99.90
11304;DHT22;5707;49.588;12.148;2022-11-15T12:36:29;10.60;99.90
11304;DHT22;5707;49.588;12.148;2022-11-15T12:38:56;10.70;99.90
11304;DHT22;5707;49.588;12.148;2022-11-15T12:43:53;10.80;99.90
11304;DHT22;5707;49.588;12.148;2022-11-15T12:48:58;10.80;99.90
11304;DHT22;5707;49.588;12.148;2022-11-15T13:02:22;11.20;99.90
11304;DHT22;5707;49.588;12.148;2022-11-15T13:04:50;11.10;99.90
11304;DHT22;5707;49.588;12.148;2022-11-15T13:20:20;11.10;99.90
11304;DHT22;5707;49.588;12.148;2022-11-15T13:22:51;11.10;99.90
11304;DHT22;5707;49.588;12.148;2022-11-15T13:30:57;11.00;99.90
11304;DHT22;5707;49.588;12.148;2022-11-15T13:36:02;10.70;99.90
11304;DHT22;5707;49.588;12.148;2022-11-15T13:38:32;10.60;99.90
11304;DHT22;5707;49.588;12.148;2022-11-15T13:40:59;10.50;99.90
11304;DHT22;5707;49.588;12.148;2022-11-15T13:46:06;10.30;99.90
11304;DHT22;5707;49.588;12.148;2022-11-15T13:48:32;10.10;99.90
11304;DHT22;5707;49.588;12.148;2022-11-15T13:51:21;10.00;99.90
11304;DHT22;5707;49.588;12.148;2022-11-15T13:53:50;9.80;99.90
11304;DHT22;5707;49.588;12.148;2022-11-15T13:56:18;9.70;99.90
11304;DHT22;5707;49.588;12.148;2022-11-15T13:58:45;9.60;99.90
11304;DHT22;5707;49.588;12.148;2022-11-15T14:01:16;9.60;99.90
11304;DHT22;5707;49.588;12.148;2022-11-15T14:03:55;9.50;99.90
11304;DHT22;5707;49.588;12.148;2022-11-15T14:06:24;9.40;99.90
11304;DHT22;5707;49.588;12.148;2022-11-15T14:11:36;9.10;99.90
11304;DHT22;5707;49.588;12.148;2022-11-15T14:16:45;9.00;99.90
11304;DHT22;5707;49.588;12.148;2022-11-15T14:22:22;8.80;99.90
11304;DHT22;5707;49.588;12.148;2022-11-15T14:25:07;8.80;99.90
11304;DHT22;5707;49.588;12.148;2022-11-15T14:27:38;8.80;99.90
11304;DHT22;5707;49.588;12.148;2022-11-15T14:30:05;8.70;99.90
11304;DHT22;5707;49.588;12.148;2022-11-15T14:32:57;8.60;99.90
11304;DHT22;5707;49.588;12.148;2022-11-15T14:35:23;8.60;99.90
11304;DHT22;5707;49.588;12.148;2022-11-15T14:37:49;8.70;99.90
11304;DHT22;5707;49.588;12.148;2022-11-15T14:40:21;8.60;99.90
11304;DHT22;5707;49.588;12.148;2022-11-15T14:42:48;8.60;99.90
11304;DHT22;5707;49.588;12.148;2022-11-15T14:45:20;8.60;99.90
11304;DHT22;5707;49.588;12.148;2022-11-15T14:47:46;8.70;99.90
11304;DHT22;5707;49.588;12.148;2022-11-15T14:50:17;8.70;99.90
11304;DHT22;5707;49.588;12.148;2022-11-15T14:52:43;8.70;99.90
11304;DHT22;5707;49.588;12.148;2022-11-15T14:55:25;8.70;99.90
11304;DHT22;5707;49.588;12.148;2022-11-15T14:57:53;8.70;99.90
11304;DHT22;5707;49.588;12.148;2022-11-15T15:00:19;8.70;99.90
11304;DHT22;5707;49.588;12.148;2022-11-15T15:02:45;8.60;99.90
11304;DHT22;5707;49.588;12.148;2022-11-15T15:05:22;8.50;99.90
11304;DHT22;5707;49.588;12.148;2022-11-15T15:07:49;8.30;99.90
11304;DHT22;5707;49.588;12.148;2022-11-15T15:10:16;8.20;99.90
11304;DHT22;5707;49.588;12.148;2022-11-15T15:12:42;8.10;99.90
11304;DHT22;5707;49.588;12.148;2022-11-15T15:15:16;8.10;99.90
11304;DHT22;5707;49.588;12.148;2022-11-15T15:17:43;8.00;99.90
11304;DHT22;5707;49.588;12.148;2022-11-15T15:20:09;7.90;99.90
11304;DHT22;5707;49.588;12.148;2022-11-15T15:22:36;7.70;99.90
11304;DHT22;5707;49.588;12.148;2022-11-15T15:25:03;7.60;99.90
11304;DHT22;5707;49.588;12.148;2022-11-15T15:27:29;7.50;99.90
11304;DHT22;5707;49.588;12.148;2022-11-15T15:29:55;7.30;99.90
11304;DHT22;5707;49.588;12.148;2022-11-15T15:32:20;7.10;99.90
11304;DHT22;5707;49.588;12.148;2022-11-15T15:34:46;7.00;99.90
11304;DHT22;5707;49.588;12.148;2022-11-15T15:37:23;6.80;99.90
11304;DHT22;5707;49.588;12.148;2022-11-15T15:39:54;6.60;99.90
11304;DHT22;5707;49.588;12.148;2022-11-15T15:42:21;6.40;99.90
11304;DHT22;5707;49.588;12.148;2022-11-15T15:44:47;6.30;99.90
11304;DHT22;5707;49.588;12.148;2022-11-15T15:47:23;6.20;99.90
11304;DHT22;5707;49.588;12.148;2022-11-15T15:49:50;6.10;99.90
11304;DHT22;5707;49.588;12.148;2022-11-15T15:52:16;6.00;99.90
11304;DHT22;5707;49.588;12.148;2022-11-15T15:54:42;6.00;99.90
11304;DHT22;5707;49.588;12.148;2022-11-15T15:57:10;6.00;99.90
11304;DHT22;5707;49.588;12.148;2022-11-15T15:59:37;6.00;99.90
11304;DHT22;5707;49.588;12.148;2022-11-15T16:02:02;6.00;99.90
11304;DHT22;5707;49.588;12.148;2022-11-15T16:04:28;6.00;99.90
11304;DHT22;5707;49.588;12.148;2022-11-15T16:06:59;5.80;99.90
11304;DHT22;5707;49.588;12.148;2022-11-15T16:09:24;5.70;99.90
11304;DHT22;5707;49.588;12.148;2022-11-15T16:12:09;5.50;99.90
11304;DHT22;5707;49.588;12.148;2022-11-15T16:14:34;5.30;99.90
11304;DHT22;5707;49.588;12.148;2022-11-15T16:17:00;5.20;99.90
11304;DHT22;5707;49.588;12.148;2022-11-15T16:19:26;5.20;99.90
11304;DHT22;5707;49.588;12.148;2022-11-15T16:21:52;5.10;99.90
11304;DHT22;5707;49.588;12.148;2022-11-15T16:24:19;5.00;99.90
11304;DHT22;5707;49.588;12.148;2022-11-15T16:26:45;5.00;99.90
11304;DHT22;5707;49.588;12.148;2022-11-15T16:29:11;4.90;99.90
11304;DHT22;5707;49.588;12.148;2022-11-15T16:31:37;4.90;99.90
11304;DHT22;5707;49.588;12.148;2022-11-15T16:34:03;4.80;99.90
11304;DHT22;5707;49.588;12.148;2022-11-15T16:36:32;4.70;99.90
11304;DHT22;5707;49.588;12.148;2022-11-15T16:38:58;4.70;99.90
11304;DHT22;5707;49.588;12.148;2022-11-15T16:41:24;4.60;99.90
11304;DHT22;5707;49.588;12.148;2022-11-15T16:43:50;4.60;99.90
11304;DHT22;5707;49.588;12.148;2022-11-15T16:46:26;4.50;99.90
11304;DHT22;5707;49.588;12.148;2022-11-15T16:48:53;4.40;99.90
11304;DHT22;5707;49.588;12.148;2022-11-15T16:51:19;4.30;99.90
11304;DHT22;5707;49.588;12.148;2022-11-15T16:53:45;4.20;99.90
11304;DHT22;5707;49.588;12.148;2022-11-15T16:56:27;4.10;99.90
11304;DHT22;5707;49.588;12.148;2022-11-15T16:58:54;4.10;99.90
11304;DHT22;5707;49.588;12.148;2022-11-15T17:01:37;4.00;99.90
11304;DHT22;5707;49.588;12.148;2022-11-15T17:04:16;3.80;99.90
11304;DHT22;5707;49.588;12.148;2022-11-15T17:06:43;3.70;99.90
11304;DHT22;5707;49.588;12.148;2022-11-15T17:09:22;3.60;99.90
11304;DHT22;5707;49.588;12.148;2022-11-15T17:11:51;3.50;99.90
11304;DHT22;5707;49.588;12.148;2022-11-15T17:14:17;3.40;99.90
11304;DHT22;5707;49.588;12.148;2022-11-15T17:16:43;3.30;99.90
11304;DHT22;5707;49.588;12.148;2022-11-15T17:19:15;3.20;99.90
11304;DHT22;5707;49.588;12.148;2022-11-15T17:21:43;3.10;99.90
11304;DHT22;5707;49.588;12.148;2022-11-15T17:24:09;3.00;99.90
11304;DHT22;5707;49.588;12.148;2022-11-15T17:26:35;3.00;99.90
11304;DHT22;5707;49.588;12.148;2022-11-15T17:29:01;2.90;99.90
11304;DHT22;5707;49.588;12.148;2022-11-15T17:31:29;2.90;99.90
11304;DHT22;5707;49.588;12.148;2022-11-15T17:33:55;2.80;99.90
11304;DHT22;5707;49.588;12.148;2022-11-15T17:36:21;2.80;99.90
11304;DHT22;5707;49.588;12.148;2022-11-15T17:38:47;2.70;99.90
11304;DHT22;5707;49.588;12.148;2022-11-15T17:41:16;2.80;99.90
11304;DHT22;5707;49.588;12.148;2022-11-15T17:43:42;2.80;99.90
11304;DHT22;5707;49.588;12.148;2022-11-15T17:46:12;2.80;99.90
11304;DHT22;5707;49.588;12.148;2022-11-15T17:48:38;2.80;99.90
11304;DHT22;5707;49.588;12.148;2022-11-15T17:51:06;2.80;99.90
11304;DHT22;5707;49.588;12.148;2022-11-15T17:53:33;2.80;99.90
11304;DHT22;5707;49.588;12.148;2022-11-15T17:56:01;2.70;99.90
11304;DHT22;5707;49.588;12.148;2022-11-15T17:58:28;2.60;99.90
11304;DHT22;5707;49.588;12.148;2022-11-15T18:00:54;2.60;99.90
11304;DHT22;5707;49.588;12.148;2022-11-15T18:03:20;2.50;99.90
11304;DHT22;5707;49.588;12.148;2022-11-15T18:05:45;2.40;99.90
11304;DHT22;5707;49.588;12.148;2022-11-15T18:08:12;2.40;99.90
11304;DHT22;5707;49.588;12.148;2022-11-15T18:10:41;2.40;99.90
11304;DHT22;5707;49.588;12.148;2022-11-15T18:13:06;2.30;99.90
11304;DHT22;5707;49.588;12.148;2022-11-15T18:15:33;2.30;99.90
11304;DHT22;5707;49.588;12.148;2022-11-15T18:17:59;2.30;99.90
11304;DHT22;5707;49.588;12.148;2022-11-15T18:20:25;2.40;99.90
11304;DHT22;5707;49.588;12.148;2022-11-15T18:22:53;2.40;99.90